sensor_id;sensor_type;location;lat;lon;timestamp;temperature;humidity
26621;DHT22;14253;44.840;10.444;2023-07-09T00:01:16;23.70;99.90
26621;DHT22;14253;44.840;10.444;2023-07-09T00:03:46;23.60;99.90
26621;DHT22;14253;44.840;10.444;2023-07-09T00:06:17;23.60;99.90
26621;DHT22;14253;44.840;10.444;2023-07-09T00:08:45;23.60;99.90
26621;DHT22;14253;44.840;10.444;2023-07-09T00:11:14;23.70;99.90
26621;DHT22;14253;44.840;10.444;2023-07-09T00:13:40;23.80;99.90
26621;DHT22;14253;44.840;10.444;2023-07-09T00:16:19;23.90;99.90
26621;DHT22;14253;44.840;10.444;2023-07-09T00:18:47;24.00;99.90
26621;DHT22;14253;44.840;10.444;2023-07-09T00:21:17;23.90;99.90
26621;DHT22;14253;44.840;10.444;2023-07-09T00:23:44;23.80;99.90
26621;DHT22;14253;44.840;10.444;2023-07-09T00:26:12;23.80;99.90
26621;DHT22;14253;44.840;10.444;2023-07-09T00:28:43;24.00;99.90
26621;DHT22;14253;44.840;10.444;2023-07-09T00:31:12;23.90;99.90
26621;DHT22;14253;44.840;10.444;2023-07-09T00:33:41;23.80;99.90
26621;DHT22;14253;44.840;10.444;2023-07-09T00:36:28;23.80;99.90
26621;DHT22;14253;44.840;10.444;2023-07-09T00:38:55;23.70;99.90
26621;DHT22;14253;44.840;10.444;2023-07-09T00:41:25;23.60;99.90
26621;DHT22;14253;44.840;10.444;2023-07-09T00:43:52;23.70;99.90
26621;DHT22;14253;44.840;10.444;2023-07-09T00:49:05;23.80;99.90
26621;DHT22;14253;44.840;10.444;2023-07-09T00:51:36;23.80;99.90
26621;DHT22;14253;44.840;10.444;2023-07-09T00:54:23;23.70;99.90
26621;DHT22;14253;44.840;10.444;2023-07-09T00:57:01;23.60;99.90
26621;DHT22;14253;44.840;10.444;2023-07-09T00:59:28;23.60;99.90
26621;DHT22;14253;44.840;10.444;2023-07-09T01:01:57;23.50;99.90
26621;DHT22;14253;44.840;10.444;2023-07-09T01:04:27;23.50;99.90
26621;DHT22;14253;44.840;10.444;2023-07-09T01:06:55;23.40;99.90
26621;DHT22;14253;44.840;10.444;2023-07-09T01:09:25;23.30;99.90
26621;DHT22;14253;44.840;10.444;2023-07-09T01:11:51;23.30;99.90
26621;DHT22;14253;44.840;10.444;2023-07-09T01:14:23;23.30;99.90
26621;DHT22;14253;44.840;10.444;2023-07-09T01:17:01;23.30;99.90
26621;DHT22;14253;44.840;10.444;2023-07-09T01:19:36;23.20;99.90
26621;DHT22;14253;44.840;10.444;2023-07-09T01:22:13;22.90;99.90
26621;DHT22;14253;44.840;10.444;2023-07-09T01:24:58;22.80;99.90
26621;DHT22;14253;44.840;10.444;2023-07-09T01:27:38;22.70;99.90
26621;DHT22;14253;44.840;10.444;2023-07-09T01:30:18;22.80;99.90
26621;DHT22;14253;44.840;10.444;2023-07-09T01:32:56;22.90;99.90
26621;DHT22;14253;44.840;10.444;2023-07-09T01:35:23;22.90;99.90
26621;DHT22;14253;44.840;10.444;2023-07-09T01:37:49;23.00;99.90
26621;DHT22;14253;44.840;10.444;2023-07-09T01:40:18;23.10;99.90
26621;DHT22;14253;44.840;10.444;2023-07-09T01:42:44;23.10;99.90
26621;DHT22;14253;44.840;10.444;2023-07-09T01:45:11;23.10;99.90
26621;DHT22;14253;44.840;10.444;2023-07-09T01:47:39;23.00;99.90
26621;DHT22;14253;44.840;10.444;2023-07-09T01:50:09;23.00;99.90
26621;DHT22;14253;44.840;10.444;2023-07-09T01:52:37;23.00;99.90
26621;DHT22;14253;44.840;10.444;2023-07-09T01:55:04;22.90;99.90
26621;DHT22;14253;44.840;10.444;2023-07-09T01:57:30;22.80;99.90
26621;DHT22;14253;44.840;10.444;2023-07-09T02:00:05;22.70;99.90
26621;DHT22;14253;44.840;10.444;2023-07-09T02:02:45;22.70;99.90
26621;DHT22;14253;44.840;10.444;2023-07-09T02:05:14;22.60;99.90
26621;DHT22;14253;44.840;10.444;2023-07-09T02:07:40;22.50;99.90
26621;DHT22;14253;44.840;10.444;2023-07-09T02:10:06;22.50;99.90
26621;DHT22;14253;44.840;10.444;2023-07-09T02:12:32;22.70;99.90
26621;DHT22;14253;44.840;10.444;2023-07-09T02:14:58;22.80;99.90
26621;DHT22;14253;44.840;10.444;2023-07-09T02:17:24;22.80;99.90
26621;DHT22;14253;44.840;10.444;2023-07-09T02:19:51;22.70;99.90
26621;DHT22;14253;44.840;10.444;2023-07-09T02:22:17;22.80;99.90
26621;DHT22;14253;44.840;10.444;2023-07-09T02:24:45;22.90;99.90
26621;DHT22;14253;44.840;10.444;2023-07-09T02:27:15;22.90;99.90
26621;DHT22;14253;44.840;10.444;2023-07-09T02:29:41;22.80;99.90
26621;DHT22;14253;44.840;10.444;2023-07-09T02:32:07;22.80;99.90
26621;DHT22;14253;44.840;10.444;2023-07-09T02:34:34;22.80;99.90
26621;DHT22;14253;44.840;10.444;2023-07-09T02:37:01;22.80;99.90
26621;DHT22;14253;44.840;10.444;2023-07-09T02:39:27;22.80;99.90
26621;DHT22;14253;44.840;10.444;2023-07-09T02:41:53;22.90;99.90
26621;DHT22;14253;44.840;10.444;2023-07-09T02:44:20;22.80;99.90
26621;DHT22;14253;44.840;10.444;2023-07-09T02:46:46;22.80;99.90
26621;DHT22;14253;44.840;10.444;2023-07-09T02:49:14;22.80;99.90
26621;DHT22;14253;44.840;10.444;2023-07-09T02:51:40;22.70;99.90
26621;DHT22;14253;44.840;10.444;2023-07-09T02:54:07;22.60;99.90
26621;DHT22;14253;44.840;10.444;2023-07-09T02:56:33;22.60;99.90
26621;DHT22;14253;44.840;10.444;2023-07-09T02:58:59;22.50;99.90
26621;DHT22;14253;44.840;10.444;2023-07-09T03:01:25;22.40;99.90
26621;DHT22;14253;44.840;10.444;2023-07-09T03:03:54;22.30;99.90
26621;DHT22;14253;44.840;10.444;2023-07-09T03:06:21;22.20;99.90
26621;DHT22;14253;44.840;10.444;2023-07-09T03:08:47;22.30;99.90
26621;DHT22;14253;44.840;10.444;2023-07-09T03:11:15;22.30;99.90
26621;DHT22;14253;44.840;10.444;2023-07-09T03:13:41;22.40;99.90
26621;DHT22;14253;44.840;10.444;2023-07-09T03:16:07;22.30;99.90
26621;DHT22;14253;44.840;10.444;2023-07-09T03:18:33;22.40;99.90
26621;DHT22;14253;44.840;10.444;2023-07-09T03:21:00;22.40;99.90
26621;DHT22;14253;44.840;10.444;2023-07-09T03:23:26;22.40;99.90
26621;DHT22;14253;44.840;10.444;2023-07-09T03:25:53;22.40;99.90
26621;DHT22;14253;44.840;10.444;2023-07-09T03:28:20;22.30;99.90
26621;DHT22;14253;44.840;10.444;2023-07-09T03:30:47;22.30;99.90
26621;DHT22;14253;44.840;10.444;2023-07-09T03:33:15;22.30;99.90
26621;DHT22;14253;44.840;10.444;2023-07-09T03:35:42;22.20;99.90
26621;DHT22;14253;44.840;10.444;2023-07-09T03:38:09;22.20;99.90
26621;DHT22;14253;44.840;10.444;2023-07-09T03:40:36;22.20;99.90
26621;DHT22;14253;44.840;10.444;2023-07-09T03:43:07;22.10;99.90
26621;DHT22;14253;44.840;10.444;2023-07-09T03:45:35;22.00;99.90
26621;DHT22;14253;44.840;10.444;2023-07-09T03:48:01;21.90;99.90
26621;DHT22;14253;44.840;10.444;2023-07-09T03:50:27;21.90;99.90
26621;DHT22;14253;44.840;10.444;2023-07-09T03:52:53;21.90;99.90
26621;DHT22;14253;44.840;10.444;2023-07-09T03:55:20;21.90;99.90
26621;DHT22;14253;44.840;10.444;2023-07-09T03:57:46;21.90;99.90
26621;DHT22;14253;44.840;10.444;2023-07-09T04:00:13;21.90;99.90
26621;DHT22;14253;44.840;10.444;2023-07-09T04:02:42;21.90;99.90
26621;DHT22;14253;44.840;10.444;2023-07-09T04:05:11;22.10;99.90
26621;DHT22;14253;44.840;10.444;2023-07-09T04:07:37;22.00;99.90
26621;DHT22;14253;44.840;10.444;2023-07-09T04:10:04;22.10;99.90
26621;DHT22;14253;44.840;10.444;2023-07-09T04:12:30;22.10;99.90
26621;DHT22;14253;44.840;10.444;2023-07-09T04:14:56;22.10;99.90
26621;DHT22;14253;44.840;10.444;2023-07-09T04:17:22;22.10;99.90
26621;DHT22;14253;44.840;10.444;2023-07-09T04:19:50;22.10;99.90
26621;DHT22;14253;44.840;10.444;2023-07-09T04:22:16;22.20;99.90
26621;DHT22;14253;44.840;10.444;2023-07-09T04:24:42;22.20;99.90
26621;DHT22;14253;44.840;10.444;2023-07-09T04:27:09;22.20;99.90
26621;DHT22;14253;44.840;10.444;2023-07-09T04:29:35;22.20;99.90
26621;DHT22;14253;44.840;10.444;2023-07-09T04:32:02;22.20;99.90
26621;DHT22;14253;44.840;10.444;2023-07-09T04:34:28;22.30;99.90
26621;DHT22;14253;44.840;10.444;2023-07-09T04:36:54;22.40;99.90
26621;DHT22;14253;44.840;10.444;2023-07-09T04:39:20;22.40;99.90
26621;DHT22;14253;44.840;10.444;2023-07-09T04:41:47;22.30;99.90
26621;DHT22;14253;44.840;10.444;2023-07-09T04:44:13;22.30;99.90
26621;DHT22;14253;44.840;10.444;2023-07-09T04:46:39;22.30;99.90
26621;DHT22;14253;44.840;10.444;2023-07-09T04:49:05;22.20;99.90
26621;DHT22;14253;44.840;10.444;2023-07-09T04:51:31;22.10;99.90
26621;DHT22;14253;44.840;10.444;2023-07-09T04:53:57;22.10;99.90
26621;DHT22;14253;44.840;10.444;2023-07-09T04:56:23;22.00;99.90
26621;DHT22;14253;44.840;10.444;2023-07-09T04:58:49;22.00;99.90
26621;DHT22;14253;44.840;10.444;2023-07-09T05:01:15;22.00;99.90
26621;DHT22;14253;44.840;10.444;2023-07-09T05:03:41;22.00;99.90
26621;DHT22;14253;44.840;10.444;2023-07-09T05:06:07;22.10;99.90
26621;DHT22;14253;44.840;10.444;2023-07-09T05:08:33;22.10;99.90
26621;DHT22;14253;44.840;10.444;2023-07-09T05:10:59;22.10;99.90
26621;DHT22;14253;44.840;10.444;2023-07-09T05:13:25;22.20;99.90
26621;DHT22;14253;44.840;10.444;2023-07-09T05:15:51;22.30;99.90
26621;DHT22;14253;44.840;10.444;2023-07-09T05:18:17;22.30;99.90
26621;DHT22;14253;44.840;10.444;2023-07-09T05:20:46;22.30;99.90
26621;DHT22;14253;44.840;10.444;2023-07-09T05:23:13;22.30;99.90
26621;DHT22;14253;44.840;10.444;2023-07-09T05:25:39;22.40;99.90
26621;DHT22;14253;44.840;10.444;2023-07-09T05:28:05;22.40;99.90
26621;DHT22;14253;44.840;10.444;2023-07-09T05:30:32;22.40;99.90
26621;DHT22;14253;44.840;10.444;2023-07-09T05:32:58;22.40;99.90
26621;DHT22;14253;44.840;10.444;2023-07-09T05:35:26;22.50;99.90
26621;DHT22;14253;44.840;10.444;2023-07-09T05:37:55;22.60;99.90
26621;DHT22;14253;44.840;10.444;2023-07-09T05:40:22;22.60;99.90
26621;DHT22;14253;44.840;10.444;2023-07-09T05:42:48;22.70;99.90
26621;DHT22;14253;44.840;10.444;2023-07-09T05:45:15;22.80;99.90
26621;DHT22;14253;44.840;10.444;2023-07-09T05:47:42;22.90;99.90
26621;DHT22;14253;44.840;10.444;2023-07-09T05:50:08;23.00;99.90
26621;DHT22;14253;44.840;10.444;2023-07-09T05:52:34;23.10;99.90
26621;DHT22;14253;44.840;10.444;2023-07-09T05:55:00;23.10;99.90
26621;DHT22;14253;44.840;10.444;2023-07-09T05:57:26;23.20;99.90
26621;DHT22;14253;44.840;10.444;2023-07-09T05:59:52;23.40;99.90
26621;DHT22;14253;44.840;10.444;2023-07-09T06:02:20;23.50;99.90
26621;DHT22;14253;44.840;10.444;2023-07-09T06:04:47;23.70;99.90
26621;DHT22;14253;44.840;10.444;2023-07-09T06:07:17;23.80;99.90
26621;DHT22;14253;44.840;10.444;2023-07-09T06:09:44;24.00;99.90
26621;DHT22;14253;44.840;10.444;2023-07-09T06:12:13;24.10;99.90
26621;DHT22;14253;44.840;10.444;2023-07-09T06:14:39;24.30;99.90
26621;DHT22;14253;44.840;10.444;2023-07-09T06:17:05;24.30;99.90
26621;DHT22;14253;44.840;10.444;2023-07-09T06:19:31;24.50;99.90
26621;DHT22;14253;44.840;10.444;2023-07-09T06:21:57;24.60;99.90
26621;DHT22;14253;44.840;10.444;2023-07-09T06:24:23;24.70;99.90
26621;DHT22;14253;44.840;10.444;2023-07-09T06:26:49;24.80;99.90
26621;DHT22;14253;44.840;10.444;2023-07-09T06:29:15;24.80;99.90
26621;DHT22;14253;44.840;10.444;2023-07-09T06:31:41;24.90;99.90
26621;DHT22;14253;44.840;10.444;2023-07-09T06:34:09;25.00;99.90
26621;DHT22;14253;44.840;10.444;2023-07-09T06:36:35;25.10;99.90
26621;DHT22;14253;44.840;10.444;2023-07-09T06:39:02;25.20;99.90
26621;DHT22;14253;44.840;10.444;2023-07-09T06:41:28;25.40;99.90
26621;DHT22;14253;44.840;10.444;2023-07-09T06:43:55;25.50;99.90
26621;DHT22;14253;44.840;10.444;2023-07-09T06:46:21;25.60;99.90
26621;DHT22;14253;44.840;10.444;2023-07-09T06:48:47;25.70;99.90
26621;DHT22;14253;44.840;10.444;2023-07-09T06:51:13;25.90;99.90
26621;DHT22;14253;44.840;10.444;2023-07-09T06:53:39;26.00;99.90
26621;DHT22;14253;44.840;10.444;2023-07-09T06:56:05;26.20;99.90
26621;DHT22;14253;44.840;10.444;2023-07-09T06:58:32;26.40;99.90
26621;DHT22;14253;44.840;10.444;2023-07-09T07:01:01;26.60;99.90
26621;DHT22;14253;44.840;10.444;2023-07-09T07:03:30;26.90;99.90
26621;DHT22;14253;44.840;10.444;2023-07-09T07:05:56;27.10;99.90
26621;DHT22;14253;44.840;10.444;2023-07-09T07:08:24;27.20;99.90
26621;DHT22;14253;44.840;10.444;2023-07-09T07:10:57;27.30;99.90
26621;DHT22;14253;44.840;10.444;2023-07-09T07:13:33;27.50;99.90
26621;DHT22;14253;44.840;10.444;2023-07-09T07:16:04;27.80;99.90
26621;DHT22;14253;44.840;10.444;2023-07-09T07:18:30;28.00;99.90
26621;DHT22;14253;44.840;10.444;2023-07-09T07:20:57;28.10;99.90
26621;DHT22;14253;44.840;10.444;2023-07-09T07:23:23;28.30;99.90
26621;DHT22;14253;44.840;10.444;2023-07-09T07:25:49;28.50;99.90
26621;DHT22;14253;44.840;10.444;2023-07-09T07:28:16;28.80;99.90
26621;DHT22;14253;44.840;10.444;2023-07-09T07:30:42;29.10;99.90
26621;DHT22;14253;44.840;10.444;2023-07-09T07:33:08;29.30;99.90
26621;DHT22;14253;44.840;10.444;2023-07-09T07:35:34;29.30;99.90
26621;DHT22;14253;44.840;10.444;2023-07-09T07:38:00;29.40;99.90
26621;DHT22;14253;44.840;10.444;2023-07-09T07:40:26;29.80;99.90
26621;DHT22;14253;44.840;10.444;2023-07-09T07:42:52;29.70;99.90
26621;DHT22;14253;44.840;10.444;2023-07-09T07:45:18;29.60;99.90
26621;DHT22;14253;44.840;10.444;2023-07-09T07:47:44;29.70;99.90
26621;DHT22;14253;44.840;10.444;2023-07-09T07:50:10;29.90;99.90
26621;DHT22;14253;44.840;10.444;2023-07-09T07:52:36;30.20;99.90
26621;DHT22;14253;44.840;10.444;2023-07-09T07:55:07;30.30;99.90
26621;DHT22;14253;44.840;10.444;2023-07-09T07:57:33;30.20;99.90
26621;DHT22;14253;44.840;10.444;2023-07-09T07:59:59;30.40;99.90
26621;DHT22;14253;44.840;10.444;2023-07-09T08:02:26;30.60;99.90
26621;DHT22;14253;44.840;10.444;2023-07-09T08:04:52;30.60;99.90
26621;DHT22;14253;44.840;10.444;2023-07-09T08:07:19;30.40;99.90
26621;DHT22;14253;44.840;10.444;2023-07-09T08:09:46;30.30;99.90
26621;DHT22;14253;44.840;10.444;2023-07-09T08:12:13;30.60;99.90
26621;DHT22;14253;44.840;10.444;2023-07-09T08:14:41;30.70;99.90
26621;DHT22;14253;44.840;10.444;2023-07-09T08:17:07;31.10;99.90
26621;DHT22;14253;44.840;10.444;2023-07-09T08:19:50;31.10;99.90
26621;DHT22;14253;44.840;10.444;2023-07-09T08:22:16;31.00;99.90
26621;DHT22;14253;44.840;10.444;2023-07-09T08:24:43;31.30;99.90
26621;DHT22;14253;44.840;10.444;2023-07-09T08:27:09;31.30;99.90
26621;DHT22;14253;44.840;10.444;2023-07-09T08:29:35;31.30;99.90
26621;DHT22;14253;44.840;10.444;2023-07-09T08:32:02;31.70;99.90
26621;DHT22;14253;44.840;10.444;2023-07-09T08:34:28;31.70;99.90
26621;DHT22;14253;44.840;10.444;2023-07-09T08:36:54;31.80;99.90
26621;DHT22;14253;44.840;10.444;2023-07-09T08:39:20;31.90;99.90
26621;DHT22;14253;44.840;10.444;2023-07-09T08:42:04;32.00;99.90
26621;DHT22;14253;44.840;10.444;2023-07-09T08:47:19;32.20;99.90
26621;DHT22;14253;44.840;10.444;2023-07-09T08:50:14;32.30;99.90
26621;DHT22;14253;44.840;10.444;2023-07-09T08:52:43;32.60;99.90
26621;DHT22;14253;44.840;10.444;2023-07-09T08:55:13;32.70;99.90
26621;DHT22;14253;44.840;10.444;2023-07-09T08:57:41;32.80;99.90
26621;DHT22;14253;44.840;10.444;2023-07-09T09:02:51;32.50;99.90
26621;DHT22;14253;44.840;10.444;2023-07-09T09:05:21;32.80;99.90
26621;DHT22;14253;44.840;10.444;2023-07-09T09:08:04;32.60;99.90
26621;DHT22;14253;44.840;10.444;2023-07-09T09:10:44;32.70;99.90
26621;DHT22;14253;44.840;10.444;2023-07-09T09:13:14;32.80;99.90
26621;DHT22;14253;44.840;10.444;2023-07-09T09:15:44;32.90;99.90
26621;DHT22;14253;44.840;10.444;2023-07-09T09:18:26;32.80;99.90
26621;DHT22;14253;44.840;10.444;2023-07-09T09:21:03;33.40;99.90
26621;DHT22;14253;44.840;10.444;2023-07-09T09:23:39;33.40;99.90
26621;DHT22;14253;44.840;10.444;2023-07-09T09:26:14;33.50;99.90
26621;DHT22;14253;44.840;10.444;2023-07-09T09:28:42;33.20;99.90
26621;DHT22;14253;44.840;10.444;2023-07-09T09:31:11;33.50;99.90
26621;DHT22;14253;44.840;10.444;2023-07-09T09:33:45;33.50;99.90
26621;DHT22;14253;44.840;10.444;2023-07-09T09:36:30;33.80;99.90
26621;DHT22;14253;44.840;10.444;2023-07-09T09:39:01;34.20;99.90
26621;DHT22;14253;44.840;10.444;2023-07-09T09:41:33;34.20;99.90
26621;DHT22;14253;44.840;10.444;2023-07-09T09:44:01;34.00;99.90
26621;DHT22;14253;44.840;10.444;2023-07-09T09:46:30;33.90;99.90
26621;DHT22;14253;44.840;10.444;2023-07-09T09:49:00;34.10;99.90
26621;DHT22;14253;44.840;10.444;2023-07-09T09:51:27;34.10;99.90
26621;DHT22;14253;44.840;10.444;2023-07-09T09:53:58;34.20;99.90
26621;DHT22;14253;44.840;10.444;2023-07-09T09:56:34;34.40;99.90
26621;DHT22;14253;44.840;10.444;2023-07-09T09:59:01;34.70;99.90
26621;DHT22;14253;44.840;10.444;2023-07-09T10:01:36;35.00;99.90
26621;DHT22;14253;44.840;10.444;2023-07-09T10:04:03;34.60;99.90
26621;DHT22;14253;44.840;10.444;2023-07-09T10:06:42;34.60;99.90
26621;DHT22;14253;44.840;10.444;2023-07-09T10:20:43;35.40;99.90
26621;DHT22;14253;44.840;10.444;2023-07-09T10:26:01;36.10;99.90
26621;DHT22;14253;44.840;10.444;2023-07-09T10:39:58;36.40;99.90
26621;DHT22;14253;44.840;10.444;2023-07-09T10:45:02;36.50;99.90
26621;DHT22;14253;44.840;10.444;2023-07-09T10:47:34;36.00;99.90
26621;DHT22;14253;44.840;10.444;2023-07-09T10:50:02;35.50;99.90
26621;DHT22;14253;44.840;10.444;2023-07-09T10:52:36;35.00;99.90
26621;DHT22;14253;44.840;10.444;2023-07-09T10:55:21;35.00;99.90
26621;DHT22;14253;44.840;10.444;2023-07-09T10:58:11;34.90;99.90
26621;DHT22;14253;44.840;10.444;2023-07-09T11:00:41;35.20;99.90
26621;DHT22;14253;44.840;10.444;2023-07-09T11:03:21;35.50;99.90
26621;DHT22;14253;44.840;10.444;2023-07-09T11:05:48;35.60;99.90
26621;DHT22;14253;44.840;10.444;2023-07-09T11:08:22;35.40;99.90
26621;DHT22;14253;44.840;10.444;2023-07-09T11:11:03;35.50;99.90
26621;DHT22;14253;44.840;10.444;2023-07-09T11:13:40;35.50;99.90
26621;DHT22;14253;44.840;10.444;2023-07-09T11:16:14;35.50;99.90
26621;DHT22;14253;44.840;10.444;2023-07-09T11:18:41;35.70;99.90
26621;DHT22;14253;44.840;10.444;2023-07-09T11:21:18;36.00;99.90
26621;DHT22;14253;44.840;10.444;2023-07-09T11:23:50;36.30;99.90
26621;DHT22;14253;44.840;10.444;2023-07-09T11:26:28;36.50;99.90
26621;DHT22;14253;44.840;10.444;2023-07-09T11:31:39;36.40;99.90
26621;DHT22;14253;44.840;10.444;2023-07-09T11:36:59;36.90;99.90
26621;DHT22;14253;44.840;10.444;2023-07-09T11:42:03;37.60;99.90
26621;DHT22;14253;44.840;10.444;2023-07-09T11:44:31;37.60;99.90
26621;DHT22;14253;44.840;10.444;2023-07-09T11:50:00;37.40;99.90
26621;DHT22;14253;44.840;10.444;2023-07-09T11:52:50;37.50;99.90
26621;DHT22;14253;44.840;10.444;2023-07-09T11:55:40;37.60;99.90
26621;DHT22;14253;44.840;10.444;2023-07-09T11:58:13;37.80;99.90
26621;DHT22;14253;44.840;10.444;2023-07-09T12:03:26;37.30;99.90
26621;DHT22;14253;44.840;10.444;2023-07-09T12:05:59;37.40;99.90
26621;DHT22;14253;44.840;10.444;2023-07-09T12:08:37;37.40;99.90
26621;DHT22;14253;44.840;10.444;2023-07-09T12:11:05;37.30;99.90
26621;DHT22;14253;44.840;10.444;2023-07-09T12:13:38;37.20;99.90
26621;DHT22;14253;44.840;10.444;2023-07-09T12:16:16;37.30;99.90
26621;DHT22;14253;44.840;10.444;2023-07-09T12:18:44;37.30;99.90
26621;DHT22;14253;44.840;10.444;2023-07-09T12:21:10;37.30;99.90
26621;DHT22;14253;44.840;10.444;2023-07-09T12:23:36;37.30;99.90
26621;DHT22;14253;44.840;10.444;2023-07-09T12:26:03;37.30;99.90
26621;DHT22;14253;44.840;10.444;2023-07-09T12:28:30;37.50;99.90
26621;DHT22;14253;44.840;10.444;2023-07-09T12:30:56;37.60;99.90
26621;DHT22;14253;44.840;10.444;2023-07-09T12:33:25;37.90;99.90
26621;DHT22;14253;44.840;10.444;2023-07-09T12:36:00;37.90;99.90
26621;DHT22;14253;44.840;10.444;2023-07-09T12:38:29;37.70;99.90
26621;DHT22;14253;44.840;10.444;2023-07-09T12:40:56;37.50;99.90
26621;DHT22;14253;44.840;10.444;2023-07-09T12:43:28;37.30;99.90
26621;DHT22;14253;44.840;10.444;2023-07-09T12:45:57;37.50;99.90
26621;DHT22;14253;44.840;10.444;2023-07-09T12:48:26;37.70;99.90
26621;DHT22;14253;44.840;10.444;2023-07-09T12:50:57;37.60;99.90
26621;DHT22;14253;44.840;10.444;2023-07-09T12:53:26;37.60;99.90
26621;DHT22;14253;44.840;10.444;2023-07-09T12:55:56;37.60;99.90
26621;DHT22;14253;44.840;10.444;2023-07-09T12:58:24;37.20;99.90
26621;DHT22;14253;44.840;10.444;2023-07-09T13:00:52;37.40;99.90
26621;DHT22;14253;44.840;10.444;2023-07-09T13:03:27;37.50;99.90
26621;DHT22;14253;44.840;10.444;2023-07-09T13:05:58;37.70;99.90
26621;DHT22;14253;44.840;10.444;2023-07-09T13:08:26;38.00;99.90
26621;DHT22;14253;44.840;10.444;2023-07-09T13:10:53;38.00;99.90
26621;DHT22;14253;44.840;10.444;2023-07-09T13:13:21;38.00;99.90
26621;DHT22;14253;44.840;10.444;2023-07-09T13:15:51;38.00;99.90
26621;DHT22;14253;44.840;10.444;2023-07-09T13:18:17;37.90;99.90
26621;DHT22;14253;44.840;10.444;2023-07-09T13:20:45;37.90;99.90
26621;DHT22;14253;44.840;10.444;2023-07-09T13:23:20;37.70;99.90
26621;DHT22;14253;44.840;10.444;2023-07-09T13:25:47;38.00;99.90
26621;DHT22;14253;44.840;10.444;2023-07-09T13:28:21;37.90;99.90
26621;DHT22;14253;44.840;10.444;2023-07-09T13:30:51;37.90;99.90
26621;DHT22;14253;44.840;10.444;2023-07-09T13:33:18;37.90;99.90
26621;DHT22;14253;44.840;10.444;2023-07-09T13:35:45;38.00;99.90
26621;DHT22;14253;44.840;10.444;2023-07-09T13:38:15;37.90;99.90
26621;DHT22;14253;44.840;10.444;2023-07-09T13:40:43;37.90;99.90
26621;DHT22;14253;44.840;10.444;2023-07-09T13:43:14;37.80;99.90
26621;DHT22;14253;44.840;10.444;2023-07-09T13:45:40;37.70;99.90
26621;DHT22;14253;44.840;10.444;2023-07-09T13:48:26;37.50;99.90
26621;DHT22;14253;44.840;10.444;2023-07-09T13:50:53;37.50;99.90
26621;DHT22;14253;44.840;10.444;2023-07-09T13:53:22;37.80;99.90
26621;DHT22;14253;44.840;10.444;2023-07-09T13:55:51;37.60;99.90
26621;DHT22;14253;44.840;10.444;2023-07-09T13:58:19;37.70;99.90
26621;DHT22;14253;44.840;10.444;2023-07-09T14:00:46;38.00;99.90
26621;DHT22;14253;44.840;10.444;2023-07-09T14:03:17;38.00;99.90
26621;DHT22;14253;44.840;10.444;2023-07-09T14:05:44;38.00;99.90
26621;DHT22;14253;44.840;10.444;2023-07-09T14:08:11;37.90;99.90
26621;DHT22;14253;44.840;10.444;2023-07-09T14:10:37;37.70;99.90
26621;DHT22;14253;44.840;10.444;2023-07-09T14:13:04;37.80;99.90
26621;DHT22;14253;44.840;10.444;2023-07-09T14:15:30;37.80;99.90
26621;DHT22;14253;44.840;10.444;2023-07-09T14:17:56;37.90;99.90
26621;DHT22;14253;44.840;10.444;2023-07-09T14:20:22;37.80;99.90
26621;DHT22;14253;44.840;10.444;2023-07-09T14:22:49;37.80;99.90
26621;DHT22;14253;44.840;10.444;2023-07-09T14:25:19;37.90;99.90
26621;DHT22;14253;44.840;10.444;2023-07-09T14:27:46;37.80;99.90
26621;DHT22;14253;44.840;10.444;2023-07-09T14:30:17;37.70;99.90
26621;DHT22;14253;44.840;10.444;2023-07-09T14:32:45;37.60;99.90
26621;DHT22;14253;44.840;10.444;2023-07-09T14:37:44;37.90;99.90
26621;DHT22;14253;44.840;10.444;2023-07-09T14:40:11;38.00;99.90
26621;DHT22;14253;44.840;10.444;2023-07-09T14:42:39;38.10;99.90
26621;DHT22;14253;44.840;10.444;2023-07-09T14:45:20;38.20;99.90
26621;DHT22;14253;44.840;10.444;2023-07-09T14:47:46;38.10;99.90
26621;DHT22;14253;44.840;10.444;2023-07-09T14:50:13;38.00;99.90
26621;DHT22;14253;44.840;10.444;2023-07-09T14:52:41;37.90;99.90
26621;DHT22;14253;44.840;10.444;2023-07-09T14:55:19;37.80;99.90
26621;DHT22;14253;44.840;10.444;2023-07-09T14:57:46;37.40;99.90
26621;DHT22;14253;44.840;10.444;2023-07-09T15:00:20;37.50;99.90
26621;DHT22;14253;44.840;10.444;2023-07-09T15:02:48;37.50;99.90
26621;DHT22;14253;44.840;10.444;2023-07-09T15:05:23;37.80;99.90
26621;DHT22;14253;44.840;10.444;2023-07-09T15:07:50;37.80;99.90
26621;DHT22;14253;44.840;10.444;2023-07-09T15:10:24;37.90;99.90
26621;DHT22;14253;44.840;10.444;2023-07-09T15:12:52;37.90;99.90
26621;DHT22;14253;44.840;10.444;2023-07-09T15:15:30;37.90;99.90
26621;DHT22;14253;44.840;10.444;2023-07-09T15:17:59;37.90;99.90
26621;DHT22;14253;44.840;10.444;2023-07-09T15:20:28;37.80;99.90
26621;DHT22;14253;44.840;10.444;2023-07-09T15:22:57;37.70;99.90
26621;DHT22;14253;44.840;10.444;2023-07-09T15:25:28;37.50;99.90
26621;DHT22;14253;44.840;10.444;2023-07-09T15:27:55;37.40;99.90
26621;DHT22;14253;44.840;10.444;2023-07-09T15:30:26;37.40;99.90
26621;DHT22;14253;44.840;10.444;2023-07-09T15:32:56;37.20;99.90
26621;DHT22;14253;44.840;10.444;2023-07-09T15:35:22;37.40;99.90
26621;DHT22;14253;44.840;10.444;2023-07-09T15:37:49;37.40;99.90
26621;DHT22;14253;44.840;10.444;2023-07-09T15:40:20;37.40;99.90
26621;DHT22;14253;44.840;10.444;2023-07-09T15:42:52;37.70;99.90
26621;DHT22;14253;44.840;10.444;2023-07-09T15:45:19;37.70;99.90
26621;DHT22;14253;44.840;10.444;2023-07-09T15:47:47;37.60;99.90
26621;DHT22;14253;44.840;10.444;2023-07-09T15:50:17;37.60;99.90
26621;DHT22;14253;44.840;10.444;2023-07-09T15:52:45;37.30;99.90
26621;DHT22;14253;44.840;10.444;2023-07-09T15:55:25;37.20;99.90
26621;DHT22;14253;44.840;10.444;2023-07-09T15:57:54;37.00;99.90
26621;DHT22;14253;44.840;10.444;2023-07-09T16:00:23;36.90;99.90
26621;DHT22;14253;44.840;10.444;2023-07-09T16:02:51;37.20;99.90
26621;DHT22;14253;44.840;10.444;2023-07-09T16:07:45;37.80;99.90
26621;DHT22;14253;44.840;10.444;2023-07-09T16:10:11;37.90;99.90
26621;DHT22;14253;44.840;10.444;2023-07-09T16:12:37;37.70;99.90
26621;DHT22;14253;44.840;10.444;2023-07-09T16:15:04;37.40;99.90
26621;DHT22;14253;44.840;10.444;2023-07-09T16:17:30;37.50;99.90
26621;DHT22;14253;44.840;10.444;2023-07-09T16:19:56;37.80;99.90
26621;DHT22;14253;44.840;10.444;2023-07-09T16:22:22;37.80;99.90